Time;durP1;ratioP1;P1;durP2;ratioP2;P2;SDS_P1;SDS_P2;PMS_P1;PMS_P2;Temp;Humidity;BMP_temperature;BMP_pressure;BME280_temperature;BME280_humidity;BME280_pressure;Samples;Min_cycle;Max_cycle;Signal;HPM_P1;HPM_P2
2022/03/30 00:00:04;;;;;;;22.30;15.03;;;6.50;99.90;;;7.20;85.13;-19972.13;5010724;28;20332;-57
2022/03/30 00:02:32;;;;;;;22.93;15.27;;;6.50;99.90;;;7.22;84.42;-19972.63;5010823;28;20320;-57
2022/03/30 00:05:00;;;;;;;24.73;14.93;;;6.50;99.90;;;7.11;84.75;-19969.03;5010830;28;20317;-57
2022/03/30 00:07:31;;;;;;;23.70;14.97;;;6.40;99.90;;;7.09;85.17;-19968.38;5011141;28;20739;-60
2022/03/30 00:09:59;;;;;;;22.93;15.10;;;6.40;99.90;;;7.35;84.18;-19977.06;5010924;28;20234;-57
2022/03/30 00:12:28;;;;;;;22.70;14.10;;;6.40;99.90;;;7.49;82.38;-19981.69;5010640;28;20240;-57
2022/03/30 00:14:57;;;;;;;22.87;14.53;;;6.50;99.90;;;7.30;82.75;-19975.53;5010631;28;20611;-58
2022/03/30 00:17:27;;;;;;;20.90;13.50;;;6.50;99.90;;;7.22;83.38;-19972.81;5010583;28;20320;-60
2022/03/30 00:19:56;;;;;;;22.60;13.87;;;6.50;99.90;;;7.20;83.38;-19972.13;5010005;28;20643;-57
2022/03/30 00:22:24;;;;;;;24.00;14.17;;;6.50;99.90;;;7.25;83.04;-19973.66;5010769;28;20238;-58
2022/03/30 00:24:53;;;;;;;24.73;13.03;;;6.40;99.90;;;7.07;83.65;-19967.50;5010188;28;20233;-59
2022/03/30 00:27:21;;;;;;;21.23;13.20;;;6.40;99.90;;;7.18;83.12;-19971.44;4990674;28;20329;-57
2022/03/30 00:29:49;;;;;;;19.73;12.23;;;6.40;99.90;;;7.03;83.31;-19966.31;4990572;28;20567;-58
2022/03/30 00:32:18;;;;;;;19.90;11.53;;;6.30;99.90;;;7.27;81.90;-19974.34;4990857;28;20226;-59
2022/03/30 00:34:47;;;;;;;19.30;12.03;;;6.40;99.90;;;7.52;80.17;-19982.72;4990728;28;20263;-56
2022/03/30 00:37:16;;;;;;;18.53;11.50;;;6.50;99.90;;;7.54;79.24;-19983.41;4991024;28;20227;-58
2022/03/30 00:39:44;;;;;;;20.23;11.10;;;6.60;99.90;;;7.53;79.19;-19983.22;4990689;28;20313;-56
2022/03/30 00:42:15;;;;;;;17.57;11.23;;;6.60;99.90;;;7.29;80.16;-19975.19;4990463;28;20318;-59
2022/03/30 00:44:44;;;;;;;14.47;10.37;;;6.50;99.90;;;7.08;81.77;-19967.84;4990354;28;20320;-57
2022/03/30 00:47:15;;;;;;;22.03;10.93;;;6.40;99.90;;;7.01;81.98;-19965.63;4990536;28;20285;-57
2022/03/30 00:49:43;;;;;;;20.87;10.30;;;6.30;99.90;;;6.97;82.50;-19964.25;4990568;28;20201;-61
2022/03/30 00:52:14;;;;;;;20.23;11.10;;;6.20;99.90;;;6.68;82.83;-19954.19;4991196;28;20213;-58
2022/03/30 00:54:45;;;;;;;19.60;10.10;;;6.10;99.90;;;6.80;82.40;-19958.44;4990144;28;20313;-56
2022/03/30 00:57:16;;;;;;;19.33;10.50;;;6.00;99.90;;;7.01;81.45;-19965.63;4990189;28;20316;-57
2022/03/30 00:59:44;;;;;;;18.63;10.20;;;6.10;99.90;;;6.71;82.41;-19955.38;4990469;28;20297;-59
2022/03/30 01:02:12;;;;;;;19.23;10.13;;;6.00;99.90;;;6.81;82.22;-19958.63;4990441;28;20309;-59
2022/03/30 01:04:40;;;;;;;18.87;10.20;;;6.00;99.90;;;6.82;82.08;-19959.13;4990344;28;20523;-58
2022/03/30 01:07:09;;;;;;;16.37;9.30;;;6.00;99.90;;;6.76;82.22;-19956.91;4999170;28;20204;-58
2022/03/30 01:09:38;;;;;;;14.83;9.37;;;6.00;99.90;;;6.86;81.63;-19960.34;5010103;28;20261;-58
2022/03/30 01:12:10;;;;;;;14.87;9.67;;;6.00;99.90;;;6.76;81.77;-19956.91;5009845;28;20229;-58
2022/03/30 01:14:39;;;;;;;14.60;9.23;;;5.90;99.90;;;6.60;82.11;-19951.63;5009736;28;20256;-58
2022/03/30 01:17:07;;;;;;;13.53;8.73;;;5.90;99.90;;;6.72;81.45;-19955.72;5010105;28;20316;-56
2022/03/30 01:19:35;;;;;;;16.13;9.00;;;5.90;99.90;;;6.55;82.14;-19949.72;5009757;28;20299;-56
2022/03/30 01:22:07;;;;;;;13.27;8.60;;;5.80;99.90;;;6.63;81.80;-19952.63;5009580;28;20321;-57
2022/03/30 01:24:36;;;;;;;15.00;8.90;;;5.80;99.90;;;6.73;81.20;-19955.88;5009625;28;20237;-57
2022/03/30 01:27:04;;;;;;;15.70;9.63;;;5.80;99.90;;;6.50;81.97;-19948.03;4991773;28;20228;-56
2022/03/30 01:32:26;;;;;;;13.77;8.70;;;5.70;99.90;;;6.36;83.86;-19943.41;4994474;28;20331;-58
2022/03/30 01:34:55;;;;;;;16.47;9.10;;;5.70;99.90;;;6.28;84.82;-19940.69;4994307;28;20295;-57
2022/03/30 01:37:27;;;;;;;15.77;9.30;;;5.60;99.90;;;6.02;87.00;-19931.97;4994637;28;20228;-58
2022/03/30 01:39:57;;;;;;;16.27;9.40;;;5.50;99.90;;;6.41;85.28;-19945.13;4993804;28;20229;-57
2022/03/30 01:42:26;;;;;;;14.67;7.97;;;5.60;99.90;;;6.54;84.95;-19949.41;4993765;28;20240;-57
2022/03/30 01:44:55;;;;;;;13.97;9.07;;;5.60;99.90;;;6.38;85.57;-19944.09;4993507;28;20278;-56
2022/03/30 01:47:24;;;;;;;16.47;9.10;;;5.60;99.90;;;6.36;86.47;-19943.25;4994147;28;20232;-57
2022/03/30 01:49:52;;;;;;;13.77;8.57;;;5.60;99.90;;;6.56;85.32;-19950.25;4993662;28;20296;-58
2022/03/30 01:52:20;;;;;;;15.33;8.73;;;5.70;99.90;;;6.42;86.27;-19945.28;4994508;28;20571;-58
2022/03/30 01:54:50;;;;;;;14.70;9.93;;;5.70;99.90;;;6.71;84.04;-19955.38;4993808;28;20317;-57
2022/03/30 01:57:18;;;;;;;16.07;10.03;;;5.70;99.90;;;6.80;83.33;-19958.28;4993698;28;20230;-56
2022/03/30 01:59:48;;;;;;;16.87;10.43;;;5.80;99.90;;;6.62;83.79;-19952.31;4993718;28;20232;-56
2022/03/30 02:02:15;;;;;;;17.00;10.50;;;5.70;99.90;;;6.44;84.24;-19945.97;4994081;28;20234;-57
2022/03/30 02:04:44;;;;;;;20.43;10.67;;;5.70;99.90;;;6.38;84.73;-19944.09;4993822;28;20213;-55
2022/03/30 02:07:12;;;;;;;14.90;10.10;;;5.70;99.90;;;6.47;84.46;-19947.00;5003333;28;20194;-55
2022/03/30 02:09:40;;;;;;;18.43;9.67;;;5.70;99.90;;;6.70;82.88;-19954.84;5013079;28;20527;-57
2022/03/30 02:12:10;;;;;;;14.90;9.30;;;5.70;99.90;;;6.58;83.31;-19950.94;5013232;28;20600;-57
2022/03/30 02:14:38;;;;;;;18.50;9.30;;;5.70;99.90;;;6.44;84.13;-19945.97;5012706;28;20221;-55
2022/03/30 02:17:06;;;;;;;17.37;9.63;;;5.60;99.90;;;6.60;83.91;-19951.63;5013280;28;20241;-54
2022/03/30 02:19:34;;;;;;;16.23;8.70;;;5.60;99.90;;;6.65;82.90;-19953.31;5013477;28;20316;-57
2022/03/30 02:22:03;;;;;;;15.50;9.27;;;5.70;99.90;;;6.54;83.88;-19949.41;5013026;28;20244;-57
2022/03/30 02:24:31;;;;;;;16.87;10.03;;;5.60;99.90;;;6.51;84.17;-19948.53;5012897;28;20283;-59
2022/03/30 02:26:59;;;;;;;14.70;9.60;;;5.60;99.90;;;6.34;85.03;-19942.72;4995669;28;20230;-58
2022/03/30 02:29:28;;;;;;;13.77;8.83;;;5.60;99.90;;;6.54;83.82;-19949.56;4993153;28;20232;-58
2022/03/30 02:31:59;;;;;;;15.23;9.50;;;5.60;99.90;;;6.41;84.59;-19945.13;4993524;28;20189;-57
2022/03/30 02:34:27;;;;;;;21.50;9.20;;;5.60;99.90;;;6.41;84.69;-19945.13;4993698;28;20613;-55
2022/03/30 02:36:55;;;;;;;17.43;9.53;;;5.60;99.90;;;6.52;84.77;-19948.88;4993071;28;20316;-60
2022/03/30 02:39:24;;;;;;;18.40;9.97;;;5.60;99.90;;;6.51;84.44;-19948.38;4993264;28;20312;-59
2022/03/30 02:41:51;;;;;;;14.30;9.17;;;5.60;99.90;;;6.45;84.72;-19946.50;4992010;28;20331;-59
2022/03/30 02:44:19;;;;;;;15.03;8.37;;;5.60;99.90;;;6.35;85.65;-19942.91;4992994;28;20607;-57
2022/03/30 02:46:49;;;;;;;14.23;8.67;;;5.50;99.90;;;5.98;87.33;-19930.44;4993269;28;20592;-59
2022/03/30 02:49:17;;;;;;;19.40;8.93;;;5.40;99.90;;;6.12;87.64;-19935.38;4993719;28;20276;-58
2022/03/30 02:51:45;;;;;;;12.67;7.43;;;5.40;99.90;;;6.05;88.18;-19932.97;4992866;28;20321;-59
2022/03/30 02:54:13;;;;;;;14.57;7.80;;;5.30;99.90;;;6.13;87.39;-19935.56;4992852;28;20229;-58
2022/03/30 02:56:41;;;;;;;12.47;6.77;;;5.30;99.90;;;6.27;85.12;-19940.16;4992723;28;20252;-56
2022/03/30 02:59:09;;;;;;;10.77;6.80;;;5.40;99.90;;;6.16;86.54;-19936.56;4992535;28;20305;-60
2022/03/30 03:01:37;;;;;;;11.93;6.30;;;5.40;99.90;;;6.24;85.69;-19939.31;4993353;28;20300;-60
2022/03/30 03:04:07;;;;;;;9.37;5.57;;;5.40;99.90;;;6.16;85.51;-19936.56;4993130;28;20233;-59
2022/03/30 03:06:35;;;;;;;10.30;5.50;;;5.40;99.90;;;6.52;82.22;-19948.88;4996174;28;20668;-58
2022/03/30 03:09:04;;;;;;;10.00;5.67;;;5.50;99.90;;;6.68;80.75;-19954.34;5012457;28;20236;-58
2022/03/30 03:11:32;;;;;;;12.50;5.63;;;5.60;99.90;;;6.53;81.21;-19949.06;5011814;28;20312;-56
2022/03/30 03:14:05;;;;;;;11.03;5.23;;;5.60;99.90;;;6.59;81.22;-19951.09;5011875;28;20729;-57
2022/03/30 03:16:33;;;;;;;9.27;5.50;;;5.60;99.90;;;6.51;82.09;-19948.53;5012719;28;20272;-55
2022/03/30 03:19:03;;;;;;;10.07;4.90;;;5.60;99.90;;;6.45;82.50;-19946.31;5011976;28;20224;-58
2022/03/30 03:21:33;;;;;;;9.73;5.50;;;5.60;99.90;;;6.30;83.28;-19941.19;5011989;28;20230;-57
2022/03/30 03:24:01;;;;;;;9.50;4.97;;;5.50;99.90;;;6.48;82.52;-19947.34;5011855;28;20315;-59
2022/03/30 03:26:29;;;;;;;10.00;5.40;;;5.50;99.90;;;6.60;81.63;-19951.63;4998754;28;20254;-55
2022/03/30 03:28:57;;;;;;;9.20;5.30;;;5.60;99.90;;;6.40;82.72;-19944.78;4991810;28;20199;-57
2022/03/30 03:31:25;;;;;;;10.63;5.30;;;5.50;99.90;;;6.42;82.32;-19945.47;4992903;28;20312;-57
2022/03/30 03:33:53;;;;;;;8.67;5.37;;;5.50;99.90;;;6.52;82.20;-19948.72;4992374;28;20268;-56
2022/03/30 03:36:21;;;;;;;10.47;5.40;;;5.50;99.90;;;6.40;82.13;-19944.59;4991963;28;20236;-56
2022/03/30 03:38:50;;;;;;;11.07;5.50;;;5.50;99.90;;;6.51;82.04;-19948.38;4991778;28;20704;-58
2022/03/30 03:41:19;;;;;;;11.27;5.50;;;5.50;99.90;;;6.23;82.50;-19938.97;4991818;28;20316;-59
2022/03/30 03:43:47;;;;;;;10.63;5.07;;;5.40;99.90;;;6.03;83.82;-19932.31;4991531;28;20730;-57
2022/03/30 03:46:15;;;;;;;7.90;5.20;;;5.40;99.90;;;6.16;83.11;-19936.56;4992380;28;20541;-58
2022/03/30 03:48:43;;;;;;;9.57;5.37;;;5.40;99.90;;;5.96;83.99;-19929.75;4991833;28;20230;-59
2022/03/30 03:51:11;;;;;;;13.07;5.90;;;5.30;99.90;;;6.15;83.46;-19936.41;4991758;28;20320;-58
2022/03/30 03:53:39;;;;;;;8.67;5.17;;;5.20;99.90;;;6.29;83.22;-19941.03;4991456;28;20341;-58
2022/03/30 03:56:09;;;;;;;10.67;4.90;;;5.30;99.90;;;6.18;83.06;-19937.25;4991650;28;20315;-60
2022/03/30 03:58:37;;;;;;;12.00;5.57;;;5.30;99.90;;;6.05;83.34;-19932.81;4991995;28;20268;-58
2022/03/30 04:01:05;;;;;;;9.17;5.13;;;5.20;99.90;;;5.97;85.17;-19930.09;4991993;28;20850;-58
2022/03/30 04:03:33;;;;;;;11.13;5.00;;;5.20;99.90;;;6.11;83.82;-19934.88;4991716;28;20454;-57
2022/03/30 04:06:01;;;;;;;16.10;5.43;;;5.20;99.90;;;6.07;82.84;-19933.50;4991469;28;20261;-59
2022/03/30 04:08:29;;;;;;;10.87;4.90;;;5.20;99.90;;;6.14;81.69;-19936.06;5010505;28;20224;-58
2022/03/30 04:10:57;;;;;;;10.03;5.57;;;5.30;99.90;;;5.93;83.33;-19928.72;5011255;28;20204;-57
2022/03/30 04:13:27;;;;;;;12.40;4.97;;;5.20;99.90;;;6.08;84.10;-19934.00;5011394;28;20306;-58
2022/03/30 04:15:55;;;;;;;9.93;4.80;;;5.20;99.90;;;6.25;82.76;-19939.66;5010712;28;20232;-58
2022/03/30 04:18:23;;;;;;;10.40;5.10;;;5.20;99.90;;;6.34;82.78;-19942.72;5010673;28;20320;-58
2022/03/30 04:20:51;;;;;;;8.87;4.97;;;5.30;99.90;;;6.33;82.05;-19942.38;5010986;28;20311;-57
2022/03/30 04:23:20;;;;;;;11.00;5.63;;;5.40;99.90;;;6.04;83.62;-19932.66;5010859;28;20289;-59
2022/03/30 04:25:48;;;;;;;10.00;5.17;;;5.30;99.90;;;6.03;84.03;-19932.31;5002871;28;20290;-57
2022/03/30 04:28:17;;;;;;;10.07;4.23;;;5.20;99.90;;;6.15;82.78;-19936.25;4991400;28;20203;-58
2022/03/30 04:30:46;;;;;;;10.13;4.53;;;5.20;99.90;;;6.01;83.08;-19931.63;4991145;28;20329;-57
2022/03/30 04:33:14;;;;;;;13.37;5.03;;;5.20;99.90;;;6.13;83.64;-19935.72;4990841;28;20756;-57
2022/03/30 04:35:42;;;;;;;8.77;5.10;;;5.20;99.90;;;6.44;81.75;-19946.16;4991018;28;20242;-58
2022/03/30 04:38:11;;;;;;;8.97;4.90;;;5.30;99.90;;;6.40;82.27;-19944.78;4990874;28;20584;-58
2022/03/30 04:40:39;;;;;;;9.57;5.60;;;5.40;99.90;;;6.40;82.49;-19944.59;4991252;28;20312;-58
2022/03/30 04:43:07;;;;;;;12.13;5.50;;;5.40;99.90;;;6.20;83.49;-19937.94;4991210;28;20202;-56
2022/03/30 04:45:36;;;;;;;11.30;4.97;;;5.30;99.90;;;6.16;83.74;-19936.75;4990784;28;20283;-59
2022/03/30 04:48:06;;;;;;;11.00;5.57;;;5.30;99.90;;;6.22;83.81;-19938.63;4990781;28;20252;-55
2022/03/30 04:50:35;;;;;;;9.07;5.20;;;5.30;99.90;;;6.28;84.58;-19940.50;4990913;28;20265;-60
2022/03/30 04:53:03;;;;;;;10.40;5.30;;;5.30;99.90;;;6.25;83.82;-19939.66;4990624;28;20244;-58
2022/03/30 04:55:31;;;;;;;9.73;5.47;;;5.30;99.90;;;5.99;85.46;-19930.75;4991325;28;20223;-58
2022/03/30 04:57:59;;;;;;;8.63;5.40;;;5.20;99.90;;;5.95;85.66;-19929.56;4990511;28;20240;-58
2022/03/30 05:00:27;;;;;;;9.40;5.17;;;5.10;99.90;;;5.78;87.04;-19923.75;4990566;28;20241;-58
2022/03/30 05:02:55;;;;;;;9.50;4.90;;;5.10;99.90;;;6.10;86.32;-19934.53;4994570;28;20229;-60
2022/03/30 05:05:25;;;;;;;10.57;5.83;;;5.10;99.90;;;5.91;86.17;-19928.22;5009370;28;20220;-58
2022/03/30 05:07:53;;;;;;;9.77;5.00;;;5.10;99.90;;;5.86;86.09;-19926.31;5009778;28;20776;-57
2022/03/30 05:10:21;;;;;;;9.63;5.10;;;5.00;99.90;;;5.94;86.49;-19929.06;5010706;28;20200;-60
2022/03/30 05:12:49;;;;;;;10.67;5.50;;;5.10;99.90;;;5.97;85.92;-19930.25;5010437;28;20295;-58
2022/03/30 05:15:17;;;;;;;11.43;5.40;;;5.10;99.90;;;6.22;84.61;-19938.78;5010973;28;20228;-57
2022/03/30 05:17:47;;;;;;;11.57;5.23;;;5.10;99.90;;;5.83;86.29;-19925.47;5010802;28;20659;-57
2022/03/30 05:20:17;;;;;;;7.70;5.27;;;5.10;99.90;;;5.77;87.48;-19923.25;5011070;28;20232;-58
2022/03/30 05:22:47;;;;;;;10.80;5.57;;;5.00;99.90;;;5.75;88.59;-19922.56;5010867;28;20302;-56
2022/03/30 05:25:16;;;;;;;8.70;5.40;;;5.00;99.90;;;6.05;86.84;-19932.81;5011325;28;20236;-58
2022/03/30 05:27:44;;;;;;;8.50;5.53;;;5.10;99.90;;;6.06;85.74;-19933.34;5010798;28;20653;-59
2022/03/30 05:30:13;;;;;;;11.77;5.60;;;5.20;99.90;;;5.94;86.70;-19929.06;5010911;28;20225;-57
2022/03/30 05:32:44;;;;;;;8.87;5.10;;;5.10;99.90;;;5.98;86.85;-19930.44;5010590;28;20620;-58
2022/03/30 05:35:14;;;;;;;9.97;5.03;;;5.10;99.90;;;6.16;85.75;-19936.75;5011017;28;20247;-58
2022/03/30 05:37:48;;;;;;;10.63;5.50;;;5.20;99.90;;;6.34;85.45;-19942.56;5010383;28;20300;-57
2022/03/30 05:40:17;;;;;;;13.50;6.03;;;5.30;99.90;;;6.37;84.65;-19943.59;5011162;28;20209;-59
2022/03/30 05:42:45;;;;;;;11.30;5.97;;;5.30;99.90;;;6.36;85.67;-19943.41;5010438;28;20794;-59
2022/03/30 05:45:14;;;;;;;9.57;5.70;;;5.40;99.90;;;6.39;85.29;-19944.44;5010243;28;20613;-60
2022/03/30 05:47:42;;;;;;;12.43;5.83;;;5.40;99.90;;;6.20;84.47;-19937.94;5010277;28;20251;-57
2022/03/30 05:50:11;;;;;;;11.10;5.77;;;5.30;99.90;;;6.25;85.45;-19939.66;5010233;28;20259;-57
2022/03/30 05:52:39;;;;;;;8.77;5.53;;;5.30;99.90;;;6.26;85.52;-19940.00;5010381;28;20208;-58
2022/03/30 05:55:10;;;;;;;14.83;6.23;;;5.30;99.90;;;6.28;84.44;-19940.50;5010515;28;20711;-58
2022/03/30 05:57:38;;;;;;;11.87;6.00;;;5.30;99.90;;;6.10;86.30;-19934.69;5009974;28;20404;-57
2022/03/30 06:00:09;;;;;;;10.70;5.33;;;5.30;99.90;;;6.14;86.70;-19936.06;5009129;28;20233;-59
2022/03/30 06:02:37;;;;;;;10.23;5.73;;;5.30;99.90;;;6.55;84.46;-19949.72;5010260;28;20308;-58
2022/03/30 06:05:06;;;;;;;9.70;5.63;;;5.40;99.90;;;6.48;83.47;-19947.50;5010047;28;20224;-57
2022/03/30 06:07:34;;;;;;;12.00;5.33;;;5.50;99.90;;;6.05;86.16;-19932.97;5010447;28;20236;-58
2022/03/30 06:10:04;;;;;;;26.57;6.70;;;5.30;99.90;;;6.22;86.11;-19938.47;5010405;28;20256;-59
2022/03/30 06:12:33;;;;;;;9.87;5.23;;;5.20;99.90;;;6.11;86.25;-19935.03;5009893;28;20273;-58
2022/03/30 06:15:02;;;;;;;9.07;5.10;;;5.20;99.90;;;6.19;87.72;-19937.59;5009874;28;20259;-59
2022/03/30 06:17:34;;;;;;;10.73;5.23;;;5.30;99.90;;;6.36;85.86;-19943.41;5013186;28;20247;-58
2022/03/30 06:20:03;;;;;;;11.43;5.70;;;5.40;99.90;;;6.53;85.87;-19949.06;5013521;28;20232;-56
2022/03/30 06:22:32;;;;;;;8.80;5.10;;;5.50;99.90;;;6.46;85.06;-19946.66;5014371;28;20289;-58
2022/03/30 06:25:01;;;;;;;13.07;5.57;;;5.40;99.90;;;6.94;82.34;-19963.25;5013590;28;20233;-57
2022/03/30 06:27:30;;;;;;;10.17;5.40;;;5.60;99.90;;;6.67;84.25;-19953.84;5013454;28;20731;-58
2022/03/30 06:29:59;;;;;;;11.67;5.83;;;5.60;99.90;;;6.82;83.73;-19959.13;5013321;28;20308;-58
2022/03/30 06:32:27;;;;;;;9.93;5.40;;;5.70;99.90;;;6.61;85.33;-19951.97;5013548;28;20307;-57
2022/03/30 06:34:55;;;;;;;11.63;5.53;;;5.70;99.90;;;6.55;86.05;-19949.91;5013518;28;20227;-58
2022/03/30 06:37:24;;;;;;;10.30;5.17;;;5.70;99.90;;;6.88;82.62;-19961.00;5013868;28;20699;-58
2022/03/30 06:39:52;;;;;;;9.83;4.63;;;5.80;99.90;;;6.91;81.15;-19962.22;5012636;28;20797;-57
2022/03/30 06:42:20;;;;;;;8.17;4.23;;;5.80;99.90;;;7.03;79.61;-19966.31;5012965;28;20235;-57
2022/03/30 06:44:48;;;;;;;6.63;3.90;;;5.90;99.90;;;7.12;76.97;-19969.38;5012795;28;20316;-58
2022/03/30 06:47:18;;;;;;;8.60;3.50;;;6.00;99.90;;;6.99;77.68;-19964.78;5012983;28;20320;-59
2022/03/30 06:49:46;;;;;;;9.77;4.10;;;5.90;99.90;;;7.04;77.61;-19966.66;5012936;28;20201;-58
2022/03/30 06:52:14;;;;;;;12.00;3.97;;;5.90;99.90;;;6.90;78.26;-19961.88;5013541;28;20206;-57
2022/03/30 06:54:42;;;;;;;8.83;3.67;;;5.90;99.90;;;6.83;79.58;-19959.31;5012743;28;20537;-58
2022/03/30 06:57:09;;;;;;;10.17;4.10;;;5.80;99.90;;;6.86;79.23;-19960.34;5012385;28;20255;-58
2022/03/30 06:59:37;;;;;;;7.57;3.73;;;5.70;99.90;;;6.75;80.00;-19956.75;5012277;28;20313;-59
2022/03/30 07:02:05;;;;;;;9.10;4.10;;;5.70;99.90;;;6.79;79.31;-19957.94;5012826;28;20233;-57
2022/03/30 07:04:35;;;;;;;8.30;4.37;;;5.70;99.90;;;7.01;79.99;-19965.63;5012928;28;20260;-57
2022/03/30 07:12:36;;;;;;;11.17;4.47;;;6.10;99.90;;;7.14;79.48;-19970.06;5012347;28;20230;-57
2022/03/30 07:15:05;;;;;;;7.87;4.07;;;6.10;99.90;;;7.08;79.20;-19967.84;5012049;28;20321;-58
2022/03/30 07:17:34;;;;;;;11.63;4.40;;;5.90;99.90;;;7.06;79.07;-19967.34;5011211;28;20221;-55
2022/03/30 07:20:05;;;;;;;14.00;4.30;;;6.00;99.90;;;7.32;79.04;-19976.22;5011903;28;20322;-56
2022/03/30 07:22:33;;;;;;;10.27;4.10;;;6.10;99.90;;;7.25;76.11;-19973.66;5012747;28;20196;-57
2022/03/30 07:25:01;;;;;;;9.70;3.80;;;6.10;99.90;;;7.52;75.74;-19982.72;5011582;28;20912;-56
2022/03/30 07:27:30;;;;;;;8.43;3.70;;;6.20;99.90;;;7.74;74.54;-19990.22;5011246;28;20224;-55
2022/03/30 07:29:58;;;;;;;10.93;3.97;;;6.40;99.90;;;7.57;74.84;-19984.44;5011586;28;20711;-53
2022/03/30 07:32:26;;;;;;;10.27;4.30;;;6.40;99.90;;;7.70;75.01;-19988.88;5011703;28;20653;-57
2022/03/30 07:34:54;;;;;;;11.23;4.07;;;6.50;99.90;;;7.76;74.35;-19991.09;5011685;28;20583;-58
2022/03/30 07:37:23;;;;;;;7.17;3.27;;;6.50;99.90;;;7.78;74.28;-19991.59;5012352;28;20210;-56
2022/03/30 07:39:51;;;;;;;11.87;4.10;;;6.50;99.90;;;8.11;73.87;-20002.88;5011510;28;20338;-57
2022/03/30 07:42:19;;;;;;;7.57;3.77;;;6.70;99.90;;;8.22;73.03;-20006.63;5011618;28;20229;-58
2022/03/30 07:44:48;;;;;;;9.83;4.03;;;6.90;99.90;;;8.44;71.89;-20014.34;5011354;28;20446;-56
2022/03/30 07:47:18;;;;;;;8.43;4.00;;;7.00;99.90;;;8.26;71.13;-20008.00;5011504;28;20230;-58
2022/03/30 07:49:46;;;;;;;7.17;3.90;;;7.00;99.90;;;8.55;71.00;-20017.91;5011614;28;20272;-58
2022/03/30 07:52:15;;;;;;;9.70;3.87;;;7.20;99.90;;;8.83;69.28;-20027.47;5011590;28;20240;-61
2022/03/30 07:54:44;;;;;;;14.00;3.97;;;7.40;99.90;;;8.82;68.96;-20026.97;5011023;28;20234;-58
2022/03/30 07:57:12;;;;;;;7.97;3.70;;;7.40;99.90;;;8.89;67.82;-20029.38;5011303;28;20295;-58
2022/03/30 07:59:40;;;;;;;9.37;4.23;;;7.60;99.90;;;9.00;68.15;-20033.13;5011161;28;20314;-59
2022/03/30 08:02:10;;;;;;;8.97;3.80;;;7.70;99.90;;;9.10;66.78;-20036.53;5011226;28;20622;-57
2022/03/30 08:04:38;;;;;;;9.47;3.90;;;7.80;99.90;;;9.03;67.85;-20034.16;5011551;28;20226;-59
2022/03/30 08:07:06;;;;;;;7.53;3.60;;;7.80;99.90;;;9.43;64.57;-20048.00;5011414;28;20227;-61
2022/03/30 08:09:34;;;;;;;7.17;3.43;;;7.90;99.90;;;9.33;63.30;-20044.41;5011385;28;20269;-61
2022/03/30 08:12:05;;;;;;;11.30;3.47;;;8.00;99.90;;;9.26;62.05;-20042.00;5010927;28;20304;-60
2022/03/30 08:14:33;;;;;;;9.80;3.90;;;7.90;99.90;;;9.26;61.21;-20042.19;5010851;28;20313;-53
2022/03/30 08:17:01;;;;;;;7.63;3.40;;;8.00;99.90;;;9.42;60.83;-20047.66;5011063;28;20229;-55
2022/03/30 08:19:29;;;;;;;10.03;3.40;;;8.00;99.90;;;9.36;60.44;-20045.59;5011631;28;20199;-59
2022/03/30 08:24:46;;;;;;;7.63;3.50;;;8.20;99.90;;;9.34;60.64;-20044.75;5010795;28;20233;-61
2022/03/30 08:27:17;;;;;;;5.60;3.60;;;8.10;99.90;;;9.40;61.01;-20046.78;5010470;28;20227;-58
2022/03/30 08:29:46;;;;;;;5.77;3.50;;;8.10;99.90;;;9.51;61.17;-20050.72;5010753;28;20225;-57
2022/03/30 08:32:15;;;;;;;8.33;3.70;;;8.20;99.90;;;9.75;59.32;-20058.75;5010647;28;20275;-59
2022/03/30 08:34:44;;;;;;;7.57;3.40;;;8.30;99.90;;;9.50;60.72;-20050.22;5010662;28;20745;-59
2022/03/30 08:37:13;;;;;;;6.47;3.60;;;8.10;99.90;;;9.77;60.42;-20059.59;5011567;28;20583;-57
2022/03/30 08:39:42;;;;;;;10.47;3.87;;;8.30;99.90;;;9.91;60.11;-20064.22;5009961;28;20322;-58
2022/03/30 08:42:13;;;;;;;7.60;4.20;;;8.40;99.90;;;9.97;59.21;-20066.09;5010517;28;20253;-58
2022/03/30 08:44:42;;;;;;;9.10;4.17;;;8.50;99.90;;;10.25;57.69;-20075.66;5010836;28;20225;-57
2022/03/30 08:47:12;;;;;;;9.73;3.97;;;8.70;99.90;;;10.22;57.50;-20074.81;5010907;28;20219;-57
2022/03/30 08:49:40;;;;;;;9.67;4.20;;;8.80;99.90;;;10.23;57.05;-20074.97;5010583;28;20545;-59
2022/03/30 08:52:10;;;;;;;6.97;3.93;;;8.90;99.90;;;10.37;56.40;-20079.94;5011261;28;20287;-60
2022/03/30 08:54:43;;;;;;;7.33;3.80;;;9.00;99.90;;;10.39;57.10;-20080.63;5010640;28;20308;-59
2022/03/30 08:57:13;;;;;;;7.90;4.10;;;9.00;99.90;;;10.46;56.99;-20083.00;5010435;28;20606;-59
2022/03/30 08:59:58;;;;;;;7.37;4.13;;;9.10;99.90;;;10.58;56.01;-20086.94;5010667;28;20253;-60
2022/03/30 09:02:35;;;;;;;10.77;4.30;;;9.20;99.90;;;10.62;56.66;-20088.31;5010626;28;20329;-59
2022/03/30 09:05:18;;;;;;;8.33;3.67;;;9.30;99.90;;;10.51;55.70;-20084.72;5010417;28;20608;-58
2022/03/30 09:07:49;;;;;;;8.83;3.80;;;9.30;99.90;;;10.46;56.18;-20083.00;5010228;28;20219;-58
2022/03/30 09:10:20;;;;;;;6.27;3.63;;;9.20;99.90;;;10.60;56.25;-20087.63;5010893;28;20241;-59
2022/03/30 09:12:50;;;;;;;9.90;3.70;;;9.20;99.90;;;10.58;55.85;-20086.94;5010200;28;20231;-62
2022/03/30 09:15:22;;;;;;;8.37;3.80;;;9.20;99.90;;;10.77;56.86;-20093.44;5010251;28;20280;-63
2022/03/30 09:17:58;;;;;;;10.47;4.20;;;9.40;99.90;;;10.88;56.11;-20097.34;5009952;28;20581;-60
2022/03/30 09:20:35;;;;;;;8.80;4.03;;;9.50;99.90;;;10.83;56.47;-20095.47;5010348;28;20286;-58
2022/03/30 09:23:04;;;;;;;9.77;4.47;;;9.50;99.90;;;10.83;56.67;-20095.66;5010094;28;20746;-60
2022/03/30 09:25:51;;;;;;;9.10;4.03;;;9.40;99.90;;;11.00;55.31;-20101.28;5010280;28;20233;-58
2022/03/30 09:28:23;;;;;;;10.40;4.77;;;9.50;99.90;;;11.06;55.66;-20103.50;5010607;28;20293;-58
2022/03/30 09:30:53;;;;;;;8.77;3.87;;;9.60;99.90;;;11.11;55.89;-20104.88;5009971;28;20237;-57
2022/03/30 09:33:24;;;;;;;7.50;4.10;;;9.50;99.90;;;10.92;56.76;-20098.72;5010039;28;20466;-58
2022/03/30 09:35:52;;;;;;;8.70;3.83;;;9.50;99.90;;;11.19;56.72;-20107.78;5010179;28;20684;-55
2022/03/30 09:38:23;;;;;;;9.23;4.37;;;9.60;99.90;;;11.00;56.78;-20101.28;5009884;28;20725;-57
2022/03/30 09:40:55;;;;;;;9.87;4.83;;;9.60;99.90;;;11.36;55.09;-20113.59;5010742;28;20325;-55
2022/03/30 09:43:27;;;;;;;9.93;4.50;;;9.80;99.90;;;11.24;55.82;-20109.31;5010058;28;20635;-55
2022/03/30 09:46:09;;;;;;;12.20;5.30;;;9.80;99.90;;;11.05;56.93;-20103.16;5009276;28;20584;-60
2022/03/30 09:48:49;;;;;;;8.53;4.23;;;9.80;99.90;;;11.22;56.86;-20108.63;5009649;28;20227;-62
2022/03/30 09:51:18;;;;;;;9.93;4.60;;;9.80;99.90;;;11.31;56.20;-20111.69;5011272;28;20230;-61
2022/03/30 09:53:48;;;;;;;8.83;4.37;;;9.90;99.90;;;11.13;56.66;-20105.72;5013705;28;20304;-61
2022/03/30 09:56:18;;;;;;;7.77;4.10;;;9.80;99.90;;;11.16;56.92;-20106.75;5013681;28;20250;-57
2022/03/30 09:58:48;;;;;;;11.50;4.87;;;9.80;99.90;;;11.13;57.60;-20105.72;5013512;28;20537;-56
2022/03/30 10:01:21;;;;;;;12.43;5.27;;;9.80;99.90;;;11.30;57.48;-20111.53;5014441;28;20222;-57
2022/03/30 10:03:52;;;;;;;8.90;5.07;;;9.80;99.90;;;11.29;56.78;-20111.00;5013412;28;20230;-55
2022/03/30 10:06:24;;;;;;;10.77;5.07;;;9.90;99.90;;;11.51;56.73;-20118.69;5013310;28;20317;-55
2022/03/30 10:08:54;;;;;;;8.80;4.83;;;9.90;99.90;;;11.68;57.62;-20124.50;5013501;28;20230;-60
2022/03/30 10:11:23;;;;;;;14.00;5.23;;;10.10;99.90;;;11.84;56.58;-20129.97;5013440;28;20234;-60
2022/03/30 10:13:55;;;;;;;9.47;5.47;;;10.20;99.90;;;12.06;56.14;-20137.50;5013225;28;20233;-59
2022/03/30 10:16:45;;;;;;;9.30;4.57;;;10.40;99.90;;;12.34;55.60;-20146.88;5013136;28;20210;-60
2022/03/30 10:19:14;;;;;;;9.20;5.27;;;10.50;99.90;;;12.62;55.68;-20156.44;5013888;28;20210;-61
2022/03/30 10:21:55;;;;;;;9.30;5.17;;;10.80;99.90;;;12.71;55.28;-20159.34;5013221;28;20234;-61
2022/03/30 10:24:52;;;;;;;12.10;6.30;;;10.90;99.90;;;12.67;55.02;-20157.97;5013231;28;20230;-55
2022/03/30 10:27:31;;;;;;;9.87;5.20;;;11.00;99.90;;;12.63;54.32;-20156.63;5028375;28;20268;-54
2022/03/30 10:30:04;;;;;;;10.17;4.97;;;11.00;99.90;;;12.47;54.20;-20151.16;5023901;28;20325;-60
2022/03/30 10:32:36;;;;;;;8.40;4.33;;;10.90;99.90;;;12.29;56.11;-20145.34;5012004;28;20222;-61
2022/03/30 10:35:13;;;;;;;9.10;4.90;;;10.90;99.90;;;12.19;56.21;-20141.94;5012788;28;20226;-60
2022/03/30 10:37:44;;;;;;;10.10;5.17;;;10.90;99.90;;;12.39;55.00;-20148.41;5011943;28;20662;-61
2022/03/30 10:40:19;;;;;;;8.60;5.50;;;10.80;99.90;;;12.28;55.98;-20145.00;5009453;28;23077;-63